Floweree, MT (59440)

6:27 PM MDT on September 04, 2015 (GMT -0600)
KRTV Great Falls | | Change Station
CLOSE
Current Station
Personal Weather Station
Location: Black Eagle, MT
Elevation: 3563 ft
Nearby Weather Stations

Elev 3563 ft 47.54 °N, 111.28 °W | Updated 4 seconds ago

Overcast
Overcast
50.5 °F
Feels Like 50.5 °F
N
3.0
Wind Variable Wind from NE
Gusts 9.0 mph

Today
High -- | Low -- °F
--% Chance of Precip.
Yesterday
High -- | Low -- °F
Precip. -- in
6:47 AM 7:59 PM
Waning Gibbous, 54% visible
Pressure 30.04 in
Visibility 10.0 miles
Clouds Few 600 ft
Mostly Cloudy 5500 ft
Dew Point 49 °F
Humidity 95%
Rainfall 0.54 in
Snow Depth Not available.
UV 1 out of 12
Pollen 5.40 out of 12
Air Quality Not available.
Flu Activity Not available.
METAR KGFA 042356Z AUTO 02007KT 10SM FEW006 BKN055 10/09 A3000 RMK AO2 PRESFR SLP173 60001 T01020094 10109 20100 55000 TSNO $
Pressure 30.04 in
Visibility 10.0 miles
Clouds Few 600 ft
Mostly Cloudy 5500 ft
Dew Point 49 °F
Humidity 95%
Rainfall 0.54 in
Snow Depth Not available.
UV 1 out of 12
Pollen 5.40 out of 12
Air Quality Not available.
Flu Activity Not available.
METAR KGFA 042356Z AUTO 02007KT 10SM FEW006 BKN055 10/09 A3000 RMK AO2 PRESFR SLP173 60001 T01020094 10109 20100 55000 TSNO $

10-Day Weather Forecast

×

Almanac

Astronomy

Sep. 04, 2015 Rise Set
Actual Time
Civil Twilight
Nautical Twilight
Astronomical Twilight
Moon
Length of Visible Light
Length of Day
Tomorrow will be .
, % of the Moon is Illuminated

Today's Extremes

State Highs State Lows

Community

WunderPhotos

Upload Photos

1,852,351 photos uploaded!

WunderBlogs® & News

Nearby

Air Quality

  Air Quality AQ Index Pollutant
Not available.

Snow Depth

Station Depth Elevation

Earthquake Activity

City Distance Mag. Time & Date
Minimum magnitude displayed is 2.5.

Coastal Water Temperatures

Place Temperature

Stations

Nearby Weather Stations

Station Location Temp. Windchill Dew Point Humidity Wind Precip. Elev Updated Type